createdAt,value
2017-09-12T00:01:12.996Z,14.70
2017-09-12T00:03:46.859Z,14.60
2017-09-12T00:06:15.470Z,14.60
2017-09-12T00:08:44.544Z,14.60
2017-09-12T00:11:12.041Z,14.60
2017-09-12T00:13:45.658Z,14.60
2017-09-12T00:16:14.467Z,14.60
2017-09-12T00:18:46.219Z,14.50
2017-09-12T00:21:24.443Z,14.60
2017-09-12T00:23:53.032Z,14.50
2017-09-12T00:26:25.046Z,14.50
2017-09-12T00:28:53.691Z,14.50
2017-09-12T00:31:25.220Z,14.40
2017-09-12T00:33:53.807Z,14.40
2017-09-12T00:36:21.296Z,14.30
2017-09-12T00:38:54.910Z,14.30
2017-09-12T00:41:25.699Z,14.30
2017-09-12T00:43:53.226Z,14.20
2017-09-12T00:46:20.738Z,14.20
2017-09-12T00:48:55.296Z,14.10
2017-09-12T00:51:24.675Z,14.00
2017-09-12T00:53:52.172Z,14.10
2017-09-12T00:56:25.603Z,14.10
2017-09-12T00:58:54.275Z,14.20
2017-09-12T01:01:25.353Z,14.10
2017-09-12T01:03:52.859Z,14.10
2017-09-12T01:06:20.340Z,14.10
2017-09-12T01:08:48.139Z,14.10
2017-09-12T01:11:23.972Z,14.10
2017-09-12T01:13:52.573Z,14.00
2017-09-12T01:16:20.069Z,14.00
2017-09-12T01:18:47.555Z,14.00
2017-09-12T01:21:25.509Z,13.90
2017-09-12T01:23:54.441Z,13.90
2017-09-12T01:26:22.353Z,13.90
2017-09-12T01:28:56.558Z,13.80
2017-09-12T01:31:24.319Z,13.80
2017-09-12T01:33:55.954Z,13.80
2017-09-12T01:36:23.463Z,13.80
2017-09-12T01:38:54.689Z,13.90
2017-09-12T01:41:26.036Z,13.90
2017-09-12T01:43:55.135Z,13.90
2017-09-12T01:46:23.393Z,14.00
2017-09-12T01:48:55.484Z,14.00
2017-09-12T01:51:22.976Z,13.90
2017-09-12T01:53:51.231Z,13.90
2017-09-12T01:56:24.707Z,13.90
2017-09-12T01:58:52.975Z,13.90
2017-09-12T02:01:21.251Z,13.90
2017-09-12T02:03:49.510Z,13.80
2017-09-12T02:06:24.592Z,13.80
2017-09-12T02:08:55.466Z,13.80
2017-09-12T02:11:22.965Z,13.70
2017-09-12T02:13:51.568Z,13.70
2017-09-12T02:16:25.333Z,13.70
2017-09-12T02:18:56.410Z,13.70
2017-09-12T02:21:24.628Z,13.60
2017-09-12T02:23:52.135Z,13.60
2017-09-12T02:26:19.652Z,13.60
2017-09-12T02:28:47.150Z,13.60
2017-09-12T02:31:15.738Z,13.50
2017-09-12T02:33:43.238Z,13.50
2017-09-12T02:36:10.737Z,13.50
2017-09-12T02:38:39.015Z,13.60
2017-09-12T02:41:14.336Z,13.60
2017-09-12T02:43:42.243Z,13.50
2017-09-12T02:46:09.737Z,13.60
2017-09-12T02:48:37.223Z,13.60
2017-09-12T02:51:14.987Z,13.60
2017-09-12T02:53:42.471Z,13.60
2017-09-12T02:56:09.976Z,13.60
2017-09-12T02:58:37.471Z,13.60
2017-09-12T03:01:15.743Z,13.60
2017-09-12T03:03:44.004Z,13.50
2017-09-12T03:06:12.274Z,13.50
2017-09-12T03:08:46.615Z,13.50
2017-09-12T03:11:14.111Z,13.40
2017-09-12T03:13:41.660Z,13.50
2017-09-12T03:16:15.154Z,13.60
2017-09-12T03:18:46.367Z,13.60
2017-09-12T03:21:24.404Z,13.60
2017-09-12T03:23:55.824Z,13.60
2017-09-12T03:26:24.082Z,13.70
2017-09-12T03:28:51.579Z,13.60
2017-09-12T03:31:19.084Z,13.70
2017-09-12T03:33:46.594Z,13.70
2017-09-12T03:36:14.816Z,13.70
2017-09-12T03:38:42.307Z,13.70
2017-09-12T03:41:10.900Z,13.80
2017-09-12T03:43:44.606Z,13.80
2017-09-12T03:46:13.196Z,13.90
2017-09-12T03:48:46.883Z,13.80
2017-09-12T03:51:25.655Z,13.90
2017-09-12T03:53:53.166Z,13.90
2017-09-12T03:56:21.420Z,14.00
2017-09-12T03:58:55.488Z,13.90
2017-09-12T04:01:22.980Z,14.00
2017-09-12T04:03:50.484Z,14.00
2017-09-12T04:06:24.162Z,14.00
2017-09-12T04:08:56.207Z,14.00
2017-09-12T04:11:25.040Z,13.90
2017-09-12T04:13:52.548Z,14.00
2017-09-12T04:16:20.047Z,14.00
2017-09-12T04:18:54.958Z,13.90
2017-09-12T04:21:22.461Z,13.80
2017-09-12T04:23:49.969Z,13.90
2017-09-12T04:26:17.464Z,13.90
2017-09-12T04:28:55.951Z,13.90
2017-09-12T04:31:23.437Z,13.90
2017-09-12T04:33:52.005Z,14.00
2017-09-12T04:36:20.278Z,14.00
2017-09-12T04:38:48.543Z,14.00
2017-09-12T04:41:16.047Z,13.90
2017-09-12T04:43:43.590Z,14.00
2017-09-12T04:46:11.872Z,14.00
2017-09-12T04:48:45.323Z,13.90
2017-09-12T04:51:13.131Z,14.00
2017-09-12T04:53:40.636Z,14.00
2017-09-12T04:56:14.455Z,14.00
2017-09-12T04:58:41.954Z,14.10
2017-09-12T05:01:15.793Z,14.00
2017-09-12T05:03:44.403Z,14.00
2017-09-12T05:06:14.960Z,14.00
2017-09-12T05:08:44.760Z,14.00
2017-09-12T05:11:15.387Z,13.90
2017-09-12T05:13:43.290Z,14.00
2017-09-12T05:16:14.503Z,14.00
2017-09-12T05:18:41.991Z,14.00
2017-09-12T05:21:16.769Z,14.00
2017-09-12T05:23:44.279Z,13.90
2017-09-12T05:26:12.545Z,14.00
2017-09-12T05:28:40.818Z,14.00
2017-09-12T05:31:15.396Z,14.00
2017-09-12T05:33:43.230Z,13.90
2017-09-12T05:36:16.800Z,14.00
2017-09-12T05:38:45.414Z,14.00
2017-09-12T05:41:14.615Z,14.00
2017-09-12T05:43:45.563Z,14.10
2017-09-12T05:46:13.076Z,14.10
2017-09-12T05:48:46.580Z,14.10
2017-09-12T05:51:14.491Z,14.20
2017-09-12T05:53:45.091Z,14.20
2017-09-12T05:56:15.109Z,14.20
2017-09-12T05:58:43.355Z,14.30
2017-09-12T06:01:17.210Z,14.20
2017-09-12T06:03:44.719Z,14.30
2017-09-12T06:06:15.344Z,14.30
2017-09-12T06:08:46.015Z,14.40
2017-09-12T06:11:14.785Z,14.40
2017-09-12T06:13:42.607Z,14.40
2017-09-12T06:16:10.096Z,14.50
2017-09-12T06:18:37.641Z,14.50
2017-09-12T06:21:15.033Z,14.50
2017-09-12T06:23:42.509Z,14.50
2017-09-12T06:26:16.430Z,14.60
2017-09-12T06:28:44.961Z,14.60
2017-09-12T06:31:15.517Z,14.70
2017-09-12T06:33:46.095Z,14.70
2017-09-12T06:36:14.651Z,14.70
2017-09-12T06:38:42.426Z,14.80
2017-09-12T06:41:15.775Z,14.90
2017-09-12T06:43:45.143Z,14.90
2017-09-12T06:46:14.706Z,15.00
2017-09-12T06:48:45.687Z,14.90
2017-09-12T06:51:13.937Z,15.10
2017-09-12T06:53:44.991Z,15.00
2017-09-12T06:56:12.496Z,15.10
2017-09-12T06:58:46.071Z,15.20
2017-09-12T07:01:13.946Z,15.30
2017-09-12T07:03:41.421Z,15.40
2017-09-12T07:06:08.903Z,15.60
2017-09-12T07:08:36.398Z,15.60
2017-09-12T07:11:14.663Z,15.80
2017-09-12T07:13:45.523Z,15.70
2017-09-12T07:16:16.036Z,15.90
2017-09-12T07:18:45.179Z,15.90
2017-09-12T07:21:14.460Z,16.10
2017-09-12T07:23:45.034Z,16.00
2017-09-12T07:26:12.538Z,16.10
2017-09-12T07:28:45.953Z,16.30
2017-09-12T07:31:15.075Z,16.40
2017-09-12T07:33:44.290Z,16.30
2017-09-12T07:36:11.778Z,16.50
2017-09-12T07:38:45.284Z,16.60
2017-09-12T07:41:12.783Z,16.60
2017-09-12T07:43:45.042Z,16.60
2017-09-12T07:46:16.235Z,16.80
2017-09-12T07:48:43.734Z,16.80
2017-09-12T07:51:12.015Z,17.20
2017-09-12T07:53:39.498Z,17.10
2017-09-12T07:56:14.686Z,17.10
2017-09-12T07:58:45.437Z,17.10
2017-09-12T08:01:16.327Z,17.40
2017-09-12T08:03:44.754Z,18.30
2017-09-12T08:06:15.478Z,19.00
2017-09-12T08:08:43.286Z,19.40
2017-09-12T08:11:15.131Z,19.20
2017-09-12T08:13:45.169Z,19.00
2017-09-12T08:16:15.595Z,18.90
2017-09-12T08:18:46.481Z,18.40
2017-09-12T08:21:24.363Z,17.70
2017-09-12T08:23:52.210Z,17.70
2017-09-12T08:26:19.715Z,17.70
2017-09-12T08:28:47.208Z,17.80
2017-09-12T08:31:25.913Z,18.00
2017-09-12T08:33:54.512Z,17.60
2017-09-12T08:36:22.801Z,17.40
2017-09-12T08:38:56.888Z,17.30
2017-09-12T08:41:35.135Z,17.00
2017-09-12T08:44:02.905Z,16.90
2017-09-12T08:46:30.435Z,16.90
2017-09-12T08:49:05.249Z,16.90
2017-09-12T08:51:32.764Z,16.80
2017-09-12T08:54:00.312Z,17.00
2017-09-12T08:56:34.664Z,17.80
2017-09-12T08:59:02.200Z,18.60
2017-09-12T09:01:30.031Z,19.50
2017-09-12T09:04:04.800Z,22.30
2017-09-12T09:06:36.207Z,22.20
2017-09-12T09:09:14.579Z,22.20
2017-09-12T09:11:42.398Z,22.20
2017-09-12T09:14:16.308Z,21.90
2017-09-12T09:16:44.164Z,21.50
2017-09-12T09:19:16.012Z,20.30
2017-09-12T09:21:44.822Z,20.40
2017-09-12T09:24:16.042Z,20.30
2017-09-12T09:26:45.054Z,20.40
2017-09-12T09:29:13.375Z,19.40
2017-09-12T09:31:40.883Z,19.30
2017-09-12T09:34:15.870Z,18.60
2017-09-12T09:36:43.364Z,18.50
2017-09-12T09:39:11.640Z,18.00
2017-09-12T09:41:39.448Z,17.90
2017-09-12T09:44:14.647Z,17.80
2017-09-12T09:46:43.243Z,17.50
2017-09-12T09:49:15.051Z,17.50
2017-09-12T09:51:42.559Z,17.50
2017-09-12T09:54:10.832Z,17.60
2017-09-12T09:56:45.543Z,17.50
2017-09-12T09:59:13.329Z,17.40
2017-09-12T10:01:45.203Z,17.00
2017-09-12T10:04:12.735Z,16.90
2017-09-12T10:06:41.080Z,16.80
2017-09-12T10:09:14.257Z,16.80
2017-09-12T10:11:45.365Z,18.20
2017-09-12T10:14:13.628Z,22.30
2017-09-12T10:16:41.888Z,23.50
2017-09-12T10:19:15.985Z,23.50
2017-09-12T10:21:44.883Z,24.40
2017-09-12T10:24:12.710Z,24.90
2017-09-12T10:26:46.186Z,24.70
2017-09-12T10:29:25.083Z,22.00
2017-09-12T10:31:56.119Z,21.90
2017-09-12T10:34:23.653Z,20.90
2017-09-12T10:36:51.491Z,20.80
2017-09-12T10:39:18.976Z,22.20
2017-09-12T10:41:55.222Z,23.10
2017-09-12T10:44:25.887Z,22.50
2017-09-12T10:46:53.370Z,21.60
2017-09-12T10:49:20.865Z,20.70
2017-09-12T10:51:54.440Z,20.00
2017-09-12T10:54:22.723Z,18.80
2017-09-12T10:56:50.994Z,18.50
2017-09-12T10:59:25.827Z,18.30
2017-09-12T11:01:54.119Z,18.30
2017-09-12T11:04:22.415Z,19.30
2017-09-12T11:06:49.919Z,19.20
2017-09-12T11:09:17.481Z,20.90
2017-09-12T11:11:54.907Z,22.00
2017-09-12T11:14:22.400Z,22.00
2017-09-12T11:16:56.156Z,21.50
2017-09-12T11:19:34.594Z,20.20
2017-09-12T11:22:02.451Z,20.20
2017-09-12T11:24:35.936Z,19.60
2017-09-12T11:27:04.633Z,18.90
2017-09-12T11:29:32.893Z,18.60
2017-09-12T11:32:01.179Z,18.60
2017-09-12T11:34:35.294Z,18.50
2017-09-12T11:37:03.555Z,19.80
2017-09-12T11:39:32.164Z,21.30
2017-09-12T11:41:59.679Z,21.20
2017-09-12T11:44:27.172Z,21.30
2017-09-12T11:46:55.427Z,20.30
2017-09-12T11:49:24.350Z,20.20
2017-09-12T11:51:52.935Z,22.80
2017-09-12T11:54:20.475Z,22.80
2017-09-12T11:56:54.812Z,26.10
2017-09-12T11:59:22.311Z,26.00
2017-09-12T12:01:49.840Z,26.90
2017-09-12T12:04:17.375Z,27.30
2017-09-12T12:06:45.620Z,28.40
2017-09-12T12:09:13.874Z,28.80
2017-09-12T12:11:42.120Z,28.50
2017-09-12T12:14:09.975Z,28.40
2017-09-12T12:16:38.240Z,25.20
2017-09-12T12:19:06.530Z,24.00
2017-09-12T12:21:34.795Z,23.30
2017-09-12T12:24:03.050Z,22.50
2017-09-12T12:26:30.619Z,22.40
2017-09-12T12:28:58.129Z,22.20
2017-09-12T12:31:35.707Z,23.20
2017-09-12T12:34:03.190Z,24.60
2017-09-12T12:36:30.679Z,25.70
2017-09-12T12:39:04.524Z,26.30
2017-09-12T12:41:32.778Z,25.70
2017-09-12T12:44:05.642Z,26.00
2017-09-12T12:46:33.142Z,26.00
2017-09-12T12:49:05.505Z,27.90
2017-09-12T12:51:34.923Z,28.10
2017-09-12T12:54:05.998Z,28.10
2017-09-12T12:56:34.314Z,27.80
2017-09-12T12:59:05.038Z,27.00
2017-09-12T13:01:35.666Z,26.60
2017-09-12T13:04:03.183Z,26.90
2017-09-12T13:06:31.031Z,26.70
2017-09-12T13:09:04.720Z,26.80
2017-09-12T13:11:34.739Z,26.80
2017-09-12T13:14:03.042Z,26.30
2017-09-12T13:16:36.673Z,26.20
2017-09-12T13:19:04.967Z,25.80
2017-09-12T13:21:32.516Z,25.80
2017-09-12T13:24:00.023Z,26.60
2017-09-12T13:26:34.094Z,27.10
2017-09-12T13:29:01.608Z,27.00
2017-09-12T13:31:29.095Z,26.80
2017-09-12T13:34:05.166Z,26.60
2017-09-12T13:36:32.704Z,27.00
2017-09-12T13:39:06.326Z,28.00
2017-09-12T13:41:33.824Z,28.60
2017-09-12T13:44:05.774Z,28.40
2017-09-12T13:46:36.533Z,28.40
2017-09-12T13:49:04.022Z,28.60
2017-09-12T13:51:31.524Z,28.60
2017-09-12T13:54:00.120Z,28.80
2017-09-12T13:56:28.386Z,28.70
2017-09-12T13:58:56.646Z,28.70
2017-09-12T14:01:24.184Z,28.70
2017-09-12T14:03:51.688Z,28.60
2017-09-12T14:06:26.305Z,27.60
2017-09-12T14:08:54.010Z,27.50
2017-09-12T14:11:21.809Z,26.20
2017-09-12T14:13:49.397Z,25.00
2017-09-12T14:16:24.400Z,23.20
2017-09-12T14:18:57.249Z,22.50
2017-09-12T14:21:25.228Z,22.40
2017-09-12T14:23:52.951Z,22.00
2017-09-12T14:26:25.511Z,22.40
2017-09-12T14:28:54.559Z,22.40
2017-09-12T14:31:22.047Z,23.70
2017-09-12T14:33:49.836Z,25.20
2017-09-12T14:36:17.340Z,26.70
2017-09-12T14:38:55.393Z,27.60
2017-09-12T14:41:22.897Z,27.60
2017-09-12T14:43:56.468Z,26.90
2017-09-12T14:46:34.876Z,27.50
2017-09-12T14:49:05.116Z,27.10
2017-09-12T14:51:33.379Z,26.90
2017-09-12T14:54:00.877Z,26.80
2017-09-12T14:56:28.439Z,26.80
2017-09-12T14:59:04.348Z,26.60
2017-09-12T15:01:32.107Z,26.10
2017-09-12T15:04:00.089Z,25.50
2017-09-12T15:06:28.367Z,24.00
2017-09-12T15:08:56.851Z,23.20
2017-09-12T15:11:25.110Z,22.60
2017-09-12T15:13:56.501Z,22.60
2017-09-12T15:16:23.984Z,22.20
2017-09-12T15:18:51.483Z,22.00
2017-09-12T15:21:18.981Z,21.90
2017-09-12T15:23:54.060Z,21.60
2017-09-12T15:26:21.656Z,21.30
2017-09-12T15:28:49.147Z,21.10
2017-09-12T15:31:16.989Z,20.90
2017-09-12T15:33:45.240Z,20.80
2017-09-12T15:36:14.960Z,20.90
2017-09-12T15:38:43.552Z,21.10
2017-09-12T15:41:11.210Z,21.00
2017-09-12T15:43:39.459Z,21.80
2017-09-12T15:46:14.014Z,21.80
2017-09-12T15:48:42.288Z,22.50
2017-09-12T15:51:11.001Z,22.70
2017-09-12T15:53:38.492Z,22.70
2017-09-12T15:56:05.979Z,22.90
2017-09-12T15:58:33.744Z,23.10
2017-09-12T16:01:06.911Z,23.00
2017-09-12T16:03:34.719Z,22.90
2017-09-12T16:06:02.979Z,22.40
2017-09-12T16:08:31.236Z,22.40
2017-09-12T16:10:58.735Z,22.40
2017-09-12T16:13:26.230Z,22.50
2017-09-12T16:15:54.051Z,22.60
2017-09-12T16:18:26.167Z,22.50
2017-09-12T16:20:55.411Z,22.40
2017-09-12T16:23:23.688Z,22.30
2017-09-12T16:25:51.974Z,22.00
2017-09-12T16:28:19.839Z,21.90
2017-09-12T16:30:48.141Z,21.10
2017-09-12T16:33:26.216Z,21.00
2017-09-12T16:35:54.587Z,20.50
2017-09-12T16:38:22.887Z,20.20
2017-09-12T16:40:54.511Z,20.00
2017-09-12T16:43:25.224Z,19.90
2017-09-12T16:45:52.719Z,19.70
2017-09-12T16:48:24.576Z,19.20
2017-09-12T16:50:54.651Z,19.10
2017-09-12T16:53:26.050Z,19.00
2017-09-12T16:55:54.623Z,18.70
2017-09-12T16:58:23.347Z,18.60
2017-09-12T17:00:50.831Z,18.60
2017-09-12T17:03:24.192Z,18.50
2017-09-12T17:05:51.687Z,18.40
2017-09-12T17:08:19.510Z,18.30
2017-09-12T17:10:54.044Z,18.30
2017-09-12T17:13:21.931Z,18.20
2017-09-12T17:15:49.439Z,18.20
2017-09-12T17:18:17.760Z,18.10
2017-09-12T17:20:55.590Z,18.00
2017-09-12T17:23:23.123Z,18.00
2017-09-12T17:25:51.016Z,17.90
2017-09-12T17:28:24.794Z,17.90
2017-09-12T17:30:56.227Z,17.80
2017-09-12T17:33:24.643Z,17.70
2017-09-12T17:35:52.138Z,17.60
2017-09-12T17:38:26.584Z,17.50
2017-09-12T17:40:54.395Z,17.40
2017-09-12T17:43:22.172Z,17.40
2017-09-12T17:45:55.760Z,17.30
2017-09-12T17:48:24.842Z,17.30
2017-09-12T17:50:55.281Z,17.20
2017-09-12T17:53:26.112Z,17.10
2017-09-12T17:55:54.549Z,17.00
2017-09-12T17:58:26.515Z,16.90
2017-09-12T18:00:54.011Z,16.90
2017-09-12T18:03:21.496Z,16.90
2017-09-12T18:05:54.900Z,16.80
2017-09-12T18:08:22.406Z,16.80
2017-09-12T18:10:56.235Z,16.80
2017-09-12T18:13:23.728Z,16.70
2017-09-12T18:15:55.412Z,16.60
2017-09-12T18:18:22.913Z,16.60
2017-09-12T18:27:46.846Z,16.50
2017-09-12T18:30:14.707Z,16.40
2017-09-12T18:32:45.472Z,16.40
2017-09-12T18:35:12.971Z,16.40
2017-09-12T18:37:40.480Z,16.40
2017-09-12T18:40:07.971Z,16.40
2017-09-12T18:42:45.949Z,16.50
2017-09-12T18:45:14.208Z,16.50
2017-09-12T18:47:41.707Z,16.40
2017-09-12T18:50:15.181Z,16.50
2017-09-12T18:52:42.669Z,16.50
2017-09-12T18:55:10.171Z,16.40
2017-09-12T18:57:44.228Z,16.40
2017-09-12T19:00:16.504Z,16.40
2017-09-12T19:02:44.969Z,16.30
2017-09-12T19:05:13.226Z,16.20
2017-09-12T19:07:40.729Z,16.20
2017-09-12T19:10:14.678Z,16.10
2017-09-12T19:12:42.493Z,16.00
2017-09-12T19:15:09.988Z,15.80
2017-09-12T19:17:44.567Z,15.70
2017-09-12T19:20:14.351Z,15.50
2017-09-12T19:22:45.431Z,15.50
2017-09-12T19:25:12.924Z,15.50
2017-09-12T19:27:40.419Z,15.50
2017-09-12T19:30:14.726Z,15.40
2017-09-12T19:32:42.275Z,15.40
2017-09-12T19:35:10.062Z,15.40
2017-09-12T19:37:44.243Z,15.40
2017-09-12T19:40:12.022Z,15.40
2017-09-12T19:42:39.552Z,15.40
2017-09-12T19:45:15.230Z,15.30
2017-09-12T19:47:42.731Z,15.30
2017-09-12T19:50:10.995Z,15.30
2017-09-12T19:52:39.291Z,15.30
2017-09-12T19:55:06.803Z,15.20
2017-09-12T19:57:34.702Z,15.20
2017-09-12T20:00:02.983Z,15.20
2017-09-12T20:02:34.966Z,15.20
2017-09-12T20:05:02.468Z,15.20
2017-09-12T20:07:29.970Z,15.10
2017-09-12T20:09:58.255Z,15.00
2017-09-12T20:12:34.197Z,15.00
2017-09-12T20:15:02.795Z,14.90
2017-09-12T20:17:34.781Z,14.90
2017-09-12T20:20:05.587Z,14.80
2017-09-12T20:22:33.855Z,14.80
2017-09-12T20:25:02.115Z,14.70
2017-09-12T20:27:29.615Z,14.60
2017-09-12T20:30:04.385Z,14.70
2017-09-12T20:32:32.196Z,14.70
2017-09-12T20:35:06.632Z,14.70
2017-09-12T20:37:34.400Z,14.70
2017-09-12T20:40:01.910Z,14.70
2017-09-12T20:42:29.405Z,14.70
2017-09-12T20:45:03.979Z,14.60
2017-09-12T20:47:31.488Z,14.60
2017-09-12T20:49:59.365Z,14.60
2017-09-12T20:52:33.965Z,14.50
2017-09-12T20:55:02.516Z,14.40
2017-09-12T20:57:30.003Z,14.30
2017-09-12T20:59:58.268Z,14.20
2017-09-12T21:02:26.923Z,14.20
2017-09-12T21:04:54.447Z,14.20
2017-09-12T21:07:22.689Z,14.10
2017-09-12T21:09:56.704Z,14.00
2017-09-12T21:12:35.042Z,14.10
2017-09-12T21:15:06.387Z,14.00
2017-09-12T21:17:34.607Z,14.10
2017-09-12T21:20:02.121Z,14.00
2017-09-12T21:22:36.911Z,14.00
2017-09-12T21:25:14.363Z,14.00
2017-09-12T21:27:42.156Z,14.00
2017-09-12T21:30:09.655Z,13.90
2017-09-12T21:32:44.629Z,13.90
2017-09-12T21:35:15.166Z,13.80
2017-09-12T21:37:46.159Z,13.80
2017-09-12T21:40:24.227Z,13.80
2017-09-12T21:42:55.519Z,13.70
2017-09-12T21:45:24.864Z,13.80
2017-09-12T21:47:55.774Z,13.70
2017-09-12T21:50:23.269Z,13.70
2017-09-12T21:52:56.755Z,13.70
2017-09-12T21:55:24.366Z,13.70
2017-09-12T21:57:56.101Z,13.70
2017-09-12T22:00:24.533Z,13.60
2017-09-12T22:02:52.075Z,13.60
2017-09-12T22:05:25.577Z,13.60
2017-09-12T22:07:56.183Z,13.60
2017-09-12T22:10:24.707Z,13.60
2017-09-12T22:12:52.203Z,13.60
2017-09-12T22:15:19.695Z,13.60
2017-09-12T22:17:54.135Z,13.60
2017-09-12T22:20:21.620Z,13.50
2017-09-12T22:22:49.117Z,13.60
2017-09-12T22:25:16.618Z,13.60
2017-09-12T22:27:44.103Z,13.70
2017-09-12T22:30:11.705Z,13.70
2017-09-12T22:32:46.138Z,13.70
2017-09-12T22:35:14.715Z,13.80
2017-09-12T22:37:42.286Z,13.70
2017-09-12T22:40:09.783Z,13.70
2017-09-12T22:42:37.283Z,13.80
2017-09-12T22:45:04.770Z,13.80
2017-09-12T22:47:35.511Z,13.80
2017-09-12T22:50:06.052Z,13.90
2017-09-12T22:52:33.816Z,13.90
2017-09-12T22:55:01.305Z,13.90
2017-09-12T22:57:34.954Z,13.90
2017-09-12T23:00:03.206Z,13.90
2017-09-12T23:02:31.461Z,13.80
2017-09-12T23:04:58.971Z,13.80
2017-09-12T23:07:34.249Z,13.80
2017-09-12T23:10:05.090Z,13.70
2017-09-12T23:12:32.581Z,13.70
2017-09-12T23:15:04.647Z,13.50
2017-09-12T23:17:32.903Z,13.50
2017-09-12T23:20:06.685Z,13.40
2017-09-12T23:22:34.175Z,13.40
2017-09-12T23:25:02.443Z,13.30
2017-09-12T23:27:35.893Z,13.20
2017-09-12T23:30:04.911Z,13.20
2017-09-12T23:32:35.727Z,13.20
2017-09-12T23:35:06.147Z,13.20
2017-09-12T23:37:33.975Z,13.20
2017-09-12T23:40:02.235Z,13.20
2017-09-12T23:42:36.468Z,13.20
2017-09-12T23:45:05.060Z,13.20
2017-09-12T23:47:33.321Z,13.40
2017-09-12T23:50:00.855Z,13.30
2017-09-12T23:52:28.352Z,13.40
2017-09-12T23:55:04.587Z,13.40
2017-09-12T23:57:32.072Z,13.40
